Search for airport 
image banner adimage banner adimage banner ad
image banner ad

PA34 - T N Ward

Located in Bala Cynwyd, United States

ICAO - PA34, IATA -

Data provided by Airmate  

General information

Coordinates: N40°39'3" W75°17'15"
Elevation is 377 feet MSL.
Magnetic variation is -11° East
View others Airports in Pennsylvania

Operational data

Special qualification required
Current time UTC:
Current local time:
Weather at : KABE - Lehigh Valley Intl ( 13 km )
METAR: KABE 091351Z 23006KT 10SM CLR 10/04 A3008 RMK AO2 SLP187 T01000039 $
TAF: KABE 091120Z 0912/1012 VRB03KT P6SM SCT250 FM091900 15005KT 6SM -RA OVC015 TEMPO 0919/0921 3SM -RA BR OVC010 FM100000 08006KT P6SM VCSH OVC035 FM100600 09005KT P6SM OVC040 WS020/23040KT
View NOTAMs / SUP AIP / TFR affecting this airport [VIEW]
Communications frequencies: [VIEW]

Runways:

Airport contact information

Address: Bala Cynwyd United States

Satellite view of PA34